sensor_id;sensor_type;location;lat;lon;timestamp;P1;durP1;ratioP1;P2;durP2;ratioP2
42096;SDS011;27754;45.414;11.084;2023-04-01T00:01:47;36.80;;;22.15;;
42096;SDS011;27754;45.414;11.084;2023-04-01T00:04:14;35.60;;;21.60;;
42096;SDS011;27754;45.414;11.084;2023-04-01T00:06:42;33.88;;;23.52;;
42096;SDS011;27754;45.414;11.084;2023-04-01T00:09:09;32.75;;;22.13;;
42096;SDS011;27754;45.414;11.084;2023-04-01T00:11:36;33.22;;;22.25;;
42096;SDS011;27754;45.414;11.084;2023-04-01T00:14:03;34.30;;;22.42;;
42096;SDS011;27754;45.414;11.084;2023-04-01T00:16:30;38.95;;;23.25;;
42096;SDS011;27754;45.414;11.084;2023-04-01T00:18:57;33.28;;;22.65;;
42096;SDS011;27754;45.414;11.084;2023-04-01T00:21:24;39.28;;;22.95;;
42096;SDS011;27754;45.414;11.084;2023-04-01T00:23:51;41.72;;;27.65;;
42096;SDS011;27754;45.414;11.084;2023-04-01T00:26:18;40.33;;;26.52;;
42096;SDS011;27754;45.414;11.084;2023-04-01T00:28:47;41.63;;;27.33;;
42096;SDS011;27754;45.414;11.084;2023-04-01T00:31:15;46.45;;;30.80;;
42096;SDS011;27754;45.414;11.084;2023-04-01T00:33:42;42.95;;;31.75;;
42096;SDS011;27754;45.414;11.084;2023-04-01T00:36:13;46.63;;;30.02;;
42096;SDS011;27754;45.414;11.084;2023-04-01T00:38:45;51.17;;;32.45;;
42096;SDS011;27754;45.414;11.084;2023-04-01T00:41:14;53.60;;;33.65;;
42096;SDS011;27754;45.414;11.084;2023-04-01T00:43:43;50.08;;;33.38;;
42096;SDS011;27754;45.414;11.084;2023-04-01T00:46:12;50.97;;;31.65;;
42096;SDS011;27754;45.414;11.084;2023-04-01T00:48:53;44.80;;;28.80;;
42096;SDS011;27754;45.414;11.084;2023-04-01T00:51:22;52.65;;;29.50;;
42096;SDS011;27754;45.414;11.084;2023-04-01T00:53:54;43.30;;;29.13;;
42096;SDS011;27754;45.414;11.084;2023-04-01T00:56:36;51.85;;;31.58;;
42096;SDS011;27754;45.414;11.084;2023-04-01T00:59:08;55.38;;;31.60;;
42096;SDS011;27754;45.414;11.084;2023-04-01T01:01:40;48.25;;;32.85;;
42096;SDS011;27754;45.414;11.084;2023-04-01T01:04:07;61.78;;;37.83;;
42096;SDS011;27754;45.414;11.084;2023-04-01T01:06:50;56.58;;;38.25;;
42096;SDS011;27754;45.414;11.084;2023-04-01T01:09:43;62.72;;;39.20;;
42096;SDS011;27754;45.414;11.084;2023-04-01T01:12:23;57.38;;;37.78;;
42096;SDS011;27754;45.414;11.084;2023-04-01T01:17:51;63.35;;;39.72;;
42096;SDS011;27754;45.414;11.084;2023-04-01T01:26:49;61.17;;;41.10;;
42096;SDS011;27754;45.414;11.084;2023-04-01T01:38:15;65.50;;;39.90;;
42096;SDS011;27754;45.414;11.084;2023-04-01T01:43:22;61.35;;;37.05;;
42096;SDS011;27754;45.414;11.084;2023-04-01T01:45:56;55.20;;;37.40;;
42096;SDS011;27754;45.414;11.084;2023-04-01T01:48:26;66.10;;;40.08;;
42096;SDS011;27754;45.414;11.084;2023-04-01T01:50:55;62.22;;;37.92;;
42096;SDS011;27754;45.414;11.084;2023-04-01T01:53:23;61.15;;;38.75;;
42096;SDS011;27754;45.414;11.084;2023-04-01T01:55:49;62.42;;;38.88;;
42096;SDS011;27754;45.414;11.084;2023-04-01T01:58:33;54.25;;;34.10;;
42096;SDS011;27754;45.414;11.084;2023-04-01T02:01:17;51.15;;;34.22;;
42096;SDS011;27754;45.414;11.084;2023-04-01T02:03:50;52.10;;;34.10;;
42096;SDS011;27754;45.414;11.084;2023-04-01T02:06:19;54.00;;;34.95;;
42096;SDS011;27754;45.414;11.084;2023-04-01T02:08:50;49.97;;;33.47;;
42096;SDS011;27754;45.414;11.084;2023-04-01T02:11:29;50.65;;;33.10;;
42096;SDS011;27754;45.414;11.084;2023-04-01T02:14:05;50.13;;;31.40;;
42096;SDS011;27754;45.414;11.084;2023-04-01T02:19:09;46.75;;;30.63;;
42096;SDS011;27754;45.414;11.084;2023-04-01T02:21:37;51.53;;;31.30;;
42096;SDS011;27754;45.414;11.084;2023-04-01T02:24:10;45.40;;;30.17;;
42096;SDS011;27754;45.414;11.084;2023-04-01T02:26:39;43.60;;;29.15;;
42096;SDS011;27754;45.414;11.084;2023-04-01T02:29:07;41.10;;;28.98;;
42096;SDS011;27754;45.414;11.084;2023-04-01T02:31:35;52.92;;;31.08;;
42096;SDS011;27754;45.414;11.084;2023-04-01T02:34:03;44.30;;;29.35;;
42096;SDS011;27754;45.414;11.084;2023-04-01T02:36:31;42.42;;;27.30;;
42096;SDS011;27754;45.414;11.084;2023-04-01T02:38:58;42.63;;;25.95;;
42096;SDS011;27754;45.414;11.084;2023-04-01T02:41:28;39.10;;;23.33;;
42096;SDS011;27754;45.414;11.084;2023-04-01T02:43:55;40.13;;;24.35;;
42096;SDS011;27754;45.414;11.084;2023-04-01T02:46:24;40.22;;;24.30;;
42096;SDS011;27754;45.414;11.084;2023-04-01T02:48:51;39.55;;;23.52;;
42096;SDS011;27754;45.414;11.084;2023-04-01T02:51:20;35.15;;;23.08;;
42096;SDS011;27754;45.414;11.084;2023-04-01T02:53:47;31.63;;;22.77;;
42096;SDS011;27754;45.414;11.084;2023-04-01T02:56:13;35.90;;;22.55;;
42096;SDS011;27754;45.414;11.084;2023-04-01T02:58:41;35.80;;;22.75;;
42096;SDS011;27754;45.414;11.084;2023-04-01T03:01:08;29.17;;;20.90;;
42096;SDS011;27754;45.414;11.084;2023-04-01T03:03:35;32.65;;;21.73;;
42096;SDS011;27754;45.414;11.084;2023-04-01T03:06:06;32.00;;;20.13;;
42096;SDS011;27754;45.414;11.084;2023-04-01T03:08:37;31.25;;;21.40;;
42096;SDS011;27754;45.414;11.084;2023-04-01T03:11:05;29.25;;;19.23;;
42096;SDS011;27754;45.414;11.084;2023-04-01T03:13:34;30.42;;;20.73;;
42096;SDS011;27754;45.414;11.084;2023-04-01T03:16:01;28.98;;;18.48;;
42096;SDS011;27754;45.414;11.084;2023-04-01T03:18:28;26.10;;;18.13;;
42096;SDS011;27754;45.414;11.084;2023-04-01T03:20:56;28.25;;;18.55;;
42096;SDS011;27754;45.414;11.084;2023-04-01T03:23:23;28.83;;;18.52;;
42096;SDS011;27754;45.414;11.084;2023-04-01T03:25:50;33.83;;;18.67;;
42096;SDS011;27754;45.414;11.084;2023-04-01T03:28:17;29.95;;;19.10;;
42096;SDS011;27754;45.414;11.084;2023-04-01T03:30:44;28.83;;;17.50;;
42096;SDS011;27754;45.414;11.084;2023-04-01T03:33:11;25.33;;;18.08;;
42096;SDS011;27754;45.414;11.084;2023-04-01T03:35:38;26.00;;;17.08;;
42096;SDS011;27754;45.414;11.084;2023-04-01T03:38:05;27.42;;;17.88;;
42096;SDS011;27754;45.414;11.084;2023-04-01T03:40:32;32.38;;;18.67;;
42096;SDS011;27754;45.414;11.084;2023-04-01T03:43:00;30.75;;;18.25;;
42096;SDS011;27754;45.414;11.084;2023-04-01T03:45:27;33.83;;;19.50;;
42096;SDS011;27754;45.414;11.084;2023-04-01T03:47:54;32.53;;;20.23;;
42096;SDS011;27754;45.414;11.084;2023-04-01T03:50:21;28.85;;;19.20;;
42096;SDS011;27754;45.414;11.084;2023-04-01T03:52:48;29.23;;;20.95;;
42096;SDS011;27754;45.414;11.084;2023-04-01T03:55:15;35.40;;;23.73;;
42096;SDS011;27754;45.414;11.084;2023-04-01T03:57:45;32.10;;;20.85;;
42096;SDS011;27754;45.414;11.084;2023-04-01T04:00:17;28.40;;;20.20;;
42096;SDS011;27754;45.414;11.084;2023-04-01T04:02:48;32.97;;;21.00;;
42096;SDS011;27754;45.414;11.084;2023-04-01T04:05:20;34.35;;;20.80;;
42096;SDS011;27754;45.414;11.084;2023-04-01T04:07:47;30.73;;;21.17;;
42096;SDS011;27754;45.414;11.084;2023-04-01T04:10:14;26.80;;;19.50;;
42096;SDS011;27754;45.414;11.084;2023-04-01T04:12:42;30.27;;;19.67;;
42096;SDS011;27754;45.414;11.084;2023-04-01T04:15:09;27.60;;;19.45;;
42096;SDS011;27754;45.414;11.084;2023-04-01T04:17:36;28.15;;;19.30;;
42096;SDS011;27754;45.414;11.084;2023-04-01T04:20:04;28.83;;;19.90;;
42096;SDS011;27754;45.414;11.084;2023-04-01T04:22:31;28.77;;;18.58;;
42096;SDS011;27754;45.414;11.084;2023-04-01T04:24:58;33.88;;;20.42;;
42096;SDS011;27754;45.414;11.084;2023-04-01T04:27:26;35.42;;;20.73;;
42096;SDS011;27754;45.414;11.084;2023-04-01T04:30:02;28.15;;;19.67;;
42096;SDS011;27754;45.414;11.084;2023-04-01T04:32:29;29.80;;;18.15;;
42096;SDS011;27754;45.414;11.084;2023-04-01T04:34:57;28.70;;;18.80;;
42096;SDS011;27754;45.414;11.084;2023-04-01T04:37:24;29.10;;;18.30;;
42096;SDS011;27754;45.414;11.084;2023-04-01T04:39:52;27.00;;;19.15;;
42096;SDS011;27754;45.414;11.084;2023-04-01T04:42:19;29.35;;;18.77;;
42096;SDS011;27754;45.414;11.084;2023-04-01T04:44:48;29.27;;;18.45;;
42096;SDS011;27754;45.414;11.084;2023-04-01T04:47:15;27.75;;;18.35;;
42096;SDS011;27754;45.414;11.084;2023-04-01T04:49:42;23.75;;;17.60;;
42096;SDS011;27754;45.414;11.084;2023-04-01T04:52:09;28.70;;;18.75;;
42096;SDS011;27754;45.414;11.084;2023-04-01T04:54:36;23.85;;;17.77;;
42096;SDS011;27754;45.414;11.084;2023-04-01T04:57:04;24.17;;;17.08;;
42096;SDS011;27754;45.414;11.084;2023-04-01T04:59:36;27.25;;;17.50;;
42096;SDS011;27754;45.414;11.084;2023-04-01T05:02:26;26.23;;;16.90;;
42096;SDS011;27754;45.414;11.084;2023-04-01T05:04:53;22.42;;;15.88;;
42096;SDS011;27754;45.414;11.084;2023-04-01T05:07:20;25.38;;;15.88;;
42096;SDS011;27754;45.414;11.084;2023-04-01T05:09:47;21.23;;;14.63;;
42096;SDS011;27754;45.414;11.084;2023-04-01T05:12:14;24.95;;;15.60;;
42096;SDS011;27754;45.414;11.084;2023-04-01T05:15:03;28.80;;;15.93;;
42096;SDS011;27754;45.414;11.084;2023-04-01T05:17:32;25.83;;;17.35;;
42096;SDS011;27754;45.414;11.084;2023-04-01T05:20:01;34.03;;;16.77;;
42096;SDS011;27754;45.414;11.084;2023-04-01T05:22:28;36.45;;;16.55;;
42096;SDS011;27754;45.414;11.084;2023-04-01T05:24:56;27.10;;;16.90;;
42096;SDS011;27754;45.414;11.084;2023-04-01T05:27:23;27.00;;;16.23;;
42096;SDS011;27754;45.414;11.084;2023-04-01T05:29:50;31.35;;;16.50;;
42096;SDS011;27754;45.414;11.084;2023-04-01T05:32:46;27.92;;;17.80;;
42096;SDS011;27754;45.414;11.084;2023-04-01T05:35:13;27.38;;;17.60;;
42096;SDS011;27754;45.414;11.084;2023-04-01T05:37:40;26.38;;;18.20;;
42096;SDS011;27754;45.414;11.084;2023-04-01T05:40:08;31.98;;;18.95;;
42096;SDS011;27754;45.414;11.084;2023-04-01T05:42:35;29.45;;;18.42;;
42096;SDS011;27754;45.414;11.084;2023-04-01T05:45:04;27.63;;;18.25;;
42096;SDS011;27754;45.414;11.084;2023-04-01T05:47:50;29.77;;;17.67;;
42096;SDS011;27754;45.414;11.084;2023-04-01T05:50:18;30.35;;;17.90;;
42096;SDS011;27754;45.414;11.084;2023-04-01T05:52:45;24.70;;;17.20;;
42096;SDS011;27754;45.414;11.084;2023-04-01T05:55:13;28.45;;;18.63;;
42096;SDS011;27754;45.414;11.084;2023-04-01T05:57:40;28.13;;;18.20;;
42096;SDS011;27754;45.414;11.084;2023-04-01T06:00:07;34.13;;;19.13;;
42096;SDS011;27754;45.414;11.084;2023-04-01T06:02:40;26.92;;;18.25;;
42096;SDS011;27754;45.414;11.084;2023-04-01T06:05:11;26.88;;;17.40;;
42096;SDS011;27754;45.414;11.084;2023-04-01T06:07:41;26.65;;;16.30;;
42096;SDS011;27754;45.414;11.084;2023-04-01T06:10:19;25.80;;;16.30;;
42096;SDS011;27754;45.414;11.084;2023-04-01T06:13:00;24.77;;;16.98;;
42096;SDS011;27754;45.414;11.084;2023-04-01T06:15:41;28.95;;;16.75;;
42096;SDS011;27754;45.414;11.084;2023-04-01T06:33:01;29.08;;;17.80;;
42096;SDS011;27754;45.414;11.084;2023-04-01T06:50:32;22.27;;;15.75;;
42096;SDS011;27754;45.414;11.084;2023-04-01T06:56:30;20.27;;;14.32;;
42096;SDS011;27754;45.414;11.084;2023-04-01T06:59:19;26.77;;;16.27;;
42096;SDS011;27754;45.414;11.084;2023-04-01T07:01:58;33.10;;;15.98;;
42096;SDS011;27754;45.414;11.084;2023-04-01T07:04:32;26.98;;;16.50;;
42096;SDS011;27754;45.414;11.084;2023-04-01T07:07:08;24.05;;;16.42;;
42096;SDS011;27754;45.414;11.084;2023-04-01T07:09:55;23.70;;;14.90;;
42096;SDS011;27754;45.414;11.084;2023-04-01T07:15:30;30.92;;;18.60;;
42096;SDS011;27754;45.414;11.084;2023-04-01T07:18:09;25.20;;;16.40;;
42096;SDS011;27754;45.414;11.084;2023-04-01T07:21:03;32.17;;;18.95;;
42096;SDS011;27754;45.414;11.084;2023-04-01T07:23:42;34.00;;;19.48;;
42096;SDS011;27754;45.414;11.084;2023-04-01T07:26:34;32.70;;;18.77;;
42096;SDS011;27754;45.414;11.084;2023-04-01T07:29:11;33.85;;;21.15;;
42096;SDS011;27754;45.414;11.084;2023-04-01T07:32:03;29.23;;;18.73;;
42096;SDS011;27754;45.414;11.084;2023-04-01T07:48:54;42.75;;;25.23;;
42096;SDS011;27754;45.414;11.084;2023-04-01T07:51:51;43.20;;;28.40;;
42096;SDS011;27754;45.414;11.084;2023-04-01T07:57:33;47.92;;;30.60;;
42096;SDS011;27754;45.414;11.084;2023-04-01T08:03:43;42.17;;;29.48;;
42096;SDS011;27754;45.414;11.084;2023-04-01T08:20:59;96.07;;;61.30;;
42096;SDS011;27754;45.414;11.084;2023-04-01T08:29:10;68.35;;;47.42;;
42096;SDS011;27754;45.414;11.084;2023-04-01T08:34:20;65.93;;;49.05;;
42096;SDS011;27754;45.414;11.084;2023-04-01T08:36:52;63.43;;;44.13;;
42096;SDS011;27754;45.414;11.084;2023-04-01T08:39:41;66.65;;;43.92;;
42096;SDS011;27754;45.414;11.084;2023-04-01T08:59:39;46.60;;;33.15;;
42096;SDS011;27754;45.414;11.084;2023-04-01T09:02:46;50.55;;;33.90;;
42096;SDS011;27754;45.414;11.084;2023-04-01T09:05:53;46.75;;;33.65;;
42096;SDS011;27754;45.414;11.084;2023-04-01T09:14:46;41.35;;;29.63;;
42096;SDS011;27754;45.414;11.084;2023-04-01T09:26:08;33.40;;;23.17;;
42096;SDS011;27754;45.414;11.084;2023-04-01T09:31:54;30.05;;;22.15;;
42096;SDS011;27754;45.414;11.084;2023-04-01T09:51:56;27.30;;;19.48;;
42096;SDS011;27754;45.414;11.084;2023-04-01T10:00:27;32.05;;;20.92;;
42096;SDS011;27754;45.414;11.084;2023-04-01T10:06:27;28.20;;;21.08;;
42096;SDS011;27754;45.414;11.084;2023-04-01T10:20:52;29.17;;;22.17;;
42096;SDS011;27754;45.414;11.084;2023-04-01T10:41:24;26.50;;;20.10;;
42096;SDS011;27754;45.414;11.084;2023-04-01T10:56:55;26.33;;;18.77;;
42096;SDS011;27754;45.414;11.084;2023-04-01T11:06:12;18.30;;;13.88;;
42096;SDS011;27754;45.414;11.084;2023-04-01T11:23:28;15.00;;;10.10;;
42096;SDS011;27754;45.414;11.084;2023-04-01T11:29:47;12.18;;;9.57;;
42096;SDS011;27754;45.414;11.084;2023-04-01T11:40:54;13.13;;;9.57;;
42096;SDS011;27754;45.414;11.084;2023-04-01T11:44:01;13.27;;;9.77;;
42096;SDS011;27754;45.414;11.084;2023-04-01T11:49:57;11.73;;;9.13;;
42096;SDS011;27754;45.414;11.084;2023-04-01T11:58:35;11.23;;;8.43;;
42096;SDS011;27754;45.414;11.084;2023-04-01T12:01:35;15.70;;;8.50;;
42096;SDS011;27754;45.414;11.084;2023-04-01T12:15:11;9.07;;;4.83;;
42096;SDS011;27754;45.414;11.084;2023-04-01T12:21:00;5.18;;;2.13;;
42096;SDS011;27754;45.414;11.084;2023-04-01T12:54:07;6.03;;;3.45;;
42096;SDS011;27754;45.414;11.084;2023-04-01T13:03:44;6.18;;;4.60;;
42096;SDS011;27754;45.414;11.084;2023-04-01T13:06:27;8.00;;;4.37;;
42096;SDS011;27754;45.414;11.084;2023-04-01T13:24:39;11.77;;;4.57;;
42096;SDS011;27754;45.414;11.084;2023-04-01T13:32:50;4.72;;;1.50;;
42096;SDS011;27754;45.414;11.084;2023-04-01T13:41:01;5.47;;;1.20;;
42096;SDS011;27754;45.414;11.084;2023-04-01T13:43:34;3.13;;;1.95;;
42096;SDS011;27754;45.414;11.084;2023-04-01T13:46:26;4.83;;;1.60;;
42096;SDS011;27754;45.414;11.084;2023-04-01T13:55:03;3.65;;;1.48;;
42096;SDS011;27754;45.414;11.084;2023-04-01T14:03:54;3.65;;;2.22;;
42096;SDS011;27754;45.414;11.084;2023-04-01T14:06:58;6.18;;;2.50;;
42096;SDS011;27754;45.414;11.084;2023-04-01T14:12:30;4.75;;;3.13;;
42096;SDS011;27754;45.414;11.084;2023-04-01T14:15:05;3.42;;;2.50;;
42096;SDS011;27754;45.414;11.084;2023-04-01T14:24:01;3.50;;;2.45;;
42096;SDS011;27754;45.414;11.084;2023-04-01T14:29:47;4.30;;;2.30;;
42096;SDS011;27754;45.414;11.084;2023-04-01T14:32:30;8.30;;;3.20;;
42096;SDS011;27754;45.414;11.084;2023-04-01T14:40:54;5.60;;;3.50;;
42096;SDS011;27754;45.414;11.084;2023-04-01T14:43:59;5.50;;;3.80;;
42096;SDS011;27754;45.414;11.084;2023-04-01T14:55:02;5.65;;;3.50;;
42096;SDS011;27754;45.414;11.084;2023-04-01T14:58:09;6.47;;;4.07;;
42096;SDS011;27754;45.414;11.084;2023-04-01T15:03:26;7.65;;;3.65;;
42096;SDS011;27754;45.414;11.084;2023-04-01T15:06:16;5.35;;;3.88;;
42096;SDS011;27754;45.414;11.084;2023-04-01T15:11:29;5.80;;;3.58;;
42096;SDS011;27754;45.414;11.084;2023-04-01T15:14:30;4.75;;;3.65;;
42096;SDS011;27754;45.414;11.084;2023-04-01T15:28:21;7.32;;;3.83;;
42096;SDS011;27754;45.414;11.084;2023-04-01T16:03:36;6.15;;;3.00;;
42096;SDS011;27754;45.414;11.084;2023-04-01T16:06:37;5.63;;;3.05;;
42096;SDS011;27754;45.414;11.084;2023-04-01T16:21:37;6.03;;;2.25;;
42096;SDS011;27754;45.414;11.084;2023-04-01T16:24:34;3.72;;;2.28;;
42096;SDS011;27754;45.414;11.084;2023-04-01T16:29:49;5.47;;;2.50;;
42096;SDS011;27754;45.414;11.084;2023-04-01T16:35:25;4.38;;;2.75;;
42096;SDS011;27754;45.414;11.084;2023-04-01T16:38:22;4.85;;;2.72;;
42096;SDS011;27754;45.414;11.084;2023-04-01T16:44:22;5.18;;;3.20;;
42096;SDS011;27754;45.414;11.084;2023-04-01T16:46:54;3.83;;;2.50;;
42096;SDS011;27754;45.414;11.084;2023-04-01T16:57:23;5.72;;;2.28;;
42096;SDS011;27754;45.414;11.084;2023-04-01T17:05:39;5.18;;;2.00;;
42096;SDS011;27754;45.414;11.084;2023-04-01T17:08:26;3.65;;;1.95;;
42096;SDS011;27754;45.414;11.084;2023-04-01T17:11:20;2.80;;;1.73;;
42096;SDS011;27754;45.414;11.084;2023-04-01T17:13:57;6.75;;;1.88;;
42096;SDS011;27754;45.414;11.084;2023-04-01T17:19:27;6.13;;;3.10;;
42096;SDS011;27754;45.414;11.084;2023-04-01T17:25:09;8.00;;;5.85;;
42096;SDS011;27754;45.414;11.084;2023-04-01T17:33:35;12.88;;;8.13;;
42096;SDS011;27754;45.414;11.084;2023-04-01T17:36:16;13.43;;;9.07;;
42096;SDS011;27754;45.414;11.084;2023-04-01T17:39:11;16.20;;;11.65;;
42096;SDS011;27754;45.414;11.084;2023-04-01T17:42:14;18.67;;;11.32;;
42096;SDS011;27754;45.414;11.084;2023-04-01T17:45:21;15.02;;;9.45;;
42096;SDS011;27754;45.414;11.084;2023-04-01T17:53:42;14.32;;;9.85;;
42096;SDS011;27754;45.414;11.084;2023-04-01T17:56:23;12.65;;;9.55;;
42096;SDS011;27754;45.414;11.084;2023-04-01T17:59:16;14.70;;;10.57;;
42096;SDS011;27754;45.414;11.084;2023-04-01T18:10:27;16.65;;;11.07;;
42096;SDS011;27754;45.414;11.084;2023-04-01T18:27:00;13.45;;;7.30;;
42096;SDS011;27754;45.414;11.084;2023-04-01T18:29:35;10.23;;;6.03;;
42096;SDS011;27754;45.414;11.084;2023-04-01T18:37:59;10.20;;;6.93;;
42096;SDS011;27754;45.414;11.084;2023-04-01T18:40:42;11.15;;;6.78;;
42096;SDS011;27754;45.414;11.084;2023-04-01T18:46:38;7.63;;;4.93;;
42096;SDS011;27754;45.414;11.084;2023-04-01T18:49:27;8.52;;;5.35;;
42096;SDS011;27754;45.414;11.084;2023-04-01T18:52:10;8.30;;;4.72;;
42096;SDS011;27754;45.414;11.084;2023-04-01T18:57:42;16.42;;;7.32;;
42096;SDS011;27754;45.414;11.084;2023-04-01T19:00:22;15.73;;;8.82;;
42096;SDS011;27754;45.414;11.084;2023-04-01T19:05:52;13.55;;;8.02;;
42096;SDS011;27754;45.414;11.084;2023-04-01T19:08:27;12.63;;;8.82;;
42096;SDS011;27754;45.414;11.084;2023-04-01T19:16:54;8.98;;;5.18;;
42096;SDS011;27754;45.414;11.084;2023-04-01T19:28:16;11.85;;;5.50;;
42096;SDS011;27754;45.414;11.084;2023-04-01T19:30:51;7.80;;;5.10;;
42096;SDS011;27754;45.414;11.084;2023-04-01T19:41:58;11.98;;;5.00;;
42096;SDS011;27754;45.414;11.084;2023-04-01T19:44:53;10.25;;;6.18;;
42096;SDS011;27754;45.414;11.084;2023-04-01T19:48:14;11.20;;;7.03;;
42096;SDS011;27754;45.414;11.084;2023-04-01T19:50:50;10.45;;;6.88;;
42096;SDS011;27754;45.414;11.084;2023-04-01T19:53:28;9.90;;;6.37;;
42096;SDS011;27754;45.414;11.084;2023-04-01T19:56:19;10.10;;;6.70;;
42096;SDS011;27754;45.414;11.084;2023-04-01T20:06:55;8.93;;;4.95;;
42096;SDS011;27754;45.414;11.084;2023-04-01T20:18:01;11.02;;;5.68;;
42096;SDS011;27754;45.414;11.084;2023-04-01T20:20:32;8.90;;;6.28;;
42096;SDS011;27754;45.414;11.084;2023-04-01T20:25:40;8.60;;;6.10;;
42096;SDS011;27754;45.414;11.084;2023-04-01T20:28:24;10.02;;;5.75;;
42096;SDS011;27754;45.414;11.084;2023-04-01T20:42:14;15.20;;;8.95;;
42096;SDS011;27754;45.414;11.084;2023-04-01T20:50:49;22.33;;;14.88;;
42096;SDS011;27754;45.414;11.084;2023-04-01T21:01:49;34.08;;;20.42;;
42096;SDS011;27754;45.414;11.084;2023-04-01T21:04:40;30.85;;;19.88;;
42096;SDS011;27754;45.414;11.084;2023-04-01T21:07:36;27.95;;;18.35;;
42096;SDS011;27754;45.414;11.084;2023-04-01T21:18:41;33.38;;;21.48;;
42096;SDS011;27754;45.414;11.084;2023-04-01T21:25:03;32.58;;;20.65;;
42096;SDS011;27754;45.414;11.084;2023-04-01T21:42:19;34.20;;;19.80;;
42096;SDS011;27754;45.414;11.084;2023-04-01T21:50:52;36.53;;;22.73;;
42096;SDS011;27754;45.414;11.084;2023-04-01T21:56:29;35.50;;;22.80;;
42096;SDS011;27754;45.414;11.084;2023-04-01T21:59:03;37.67;;;22.67;;
42096;SDS011;27754;45.414;11.084;2023-04-01T22:02:07;31.27;;;23.70;;
42096;SDS011;27754;45.414;11.084;2023-04-01T22:13:14;32.72;;;23.60;;
42096;SDS011;27754;45.414;11.084;2023-04-01T22:15:55;35.50;;;23.05;;
42096;SDS011;27754;45.414;11.084;2023-04-01T22:18:54;37.63;;;23.95;;
42096;SDS011;27754;45.414;11.084;2023-04-01T22:21:43;32.42;;;21.60;;
42096;SDS011;27754;45.414;11.084;2023-04-01T22:30:29;37.55;;;23.67;;
42096;SDS011;27754;45.414;11.084;2023-04-01T22:33:07;37.38;;;24.13;;
42096;SDS011;27754;45.414;11.084;2023-04-01T22:36:02;36.60;;;24.23;;
42096;SDS011;27754;45.414;11.084;2023-04-01T22:41:36;37.22;;;23.67;;
42096;SDS011;27754;45.414;11.084;2023-04-01T22:47:35;34.92;;;21.63;;
42096;SDS011;27754;45.414;11.084;2023-04-01T22:53:07;35.05;;;24.40;;
42096;SDS011;27754;45.414;11.084;2023-04-01T22:55:46;33.40;;;22.05;;
42096;SDS011;27754;45.414;11.084;2023-04-01T22:58:26;36.67;;;22.55;;
42096;SDS011;27754;45.414;11.084;2023-04-01T23:01:19;33.15;;;22.83;;
42096;SDS011;27754;45.414;11.084;2023-04-01T23:03:52;34.40;;;21.95;;
42096;SDS011;27754;45.414;11.084;2023-04-01T23:06:20;31.90;;;20.85;;
42096;SDS011;27754;45.414;11.084;2023-04-01T23:09:09;32.50;;;21.20;;
42096;SDS011;27754;45.414;11.084;2023-04-01T23:19:54;27.77;;;19.02;;
42096;SDS011;27754;45.414;11.084;2023-04-01T23:22:34;27.13;;;19.00;;
42096;SDS011;27754;45.414;11.084;2023-04-01T23:25:36;27.92;;;18.10;;
42096;SDS011;27754;45.414;11.084;2023-04-01T23:30:57;30.60;;;19.65;;
42096;SDS011;27754;45.414;11.084;2023-04-01T23:33:28;32.28;;;21.40;;
42096;SDS011;27754;45.414;11.084;2023-04-01T23:36:00;34.95;;;23.58;;
42096;SDS011;27754;45.414;11.084;2023-04-01T23:38:38;33.55;;;22.25;;
42096;SDS011;27754;45.414;11.084;2023-04-01T23:41:08;34.17;;;22.83;;
42096;SDS011;27754;45.414;11.084;2023-04-01T23:43:55;33.03;;;22.65;;
42096;SDS011;27754;45.414;11.084;2023-04-01T23:46:23;38.97;;;23.08;;
42096;SDS011;27754;45.414;11.084;2023-04-01T23:48:51;32.30;;;22.63;;
42096;SDS011;27754;45.414;11.084;2023-04-01T23:51:23;33.47;;;22.45;;
42096;SDS011;27754;45.414;11.084;2023-04-01T23:53:56;36.58;;;22.45;;
